createdAt,value
2023-02-13T00:00:25.866Z,52.73
2023-02-13T00:01:25.921Z,52.67
2023-02-13T00:02:25.890Z,53.10
2023-02-13T00:03:25.918Z,52.73
2023-02-13T00:04:25.866Z,52.56
2023-02-13T00:05:25.883Z,52.80
2023-02-13T00:06:25.918Z,53.07
2023-02-13T00:07:25.806Z,53.10
2023-02-13T00:08:25.844Z,52.87
2023-02-13T00:09:25.773Z,53.38
2023-02-13T00:10:25.802Z,53.14
2023-02-13T00:11:25.782Z,53.72
2023-02-13T00:12:25.780Z,53.65
2023-02-13T00:13:25.788Z,53.96
2023-02-13T00:14:25.746Z,53.24
2023-02-13T00:15:25.781Z,53.44
2023-02-13T00:16:25.751Z,54.03
2023-02-13T00:17:25.703Z,53.55
2023-02-13T00:18:25.699Z,54.67
2023-02-13T00:19:25.701Z,54.10
2023-02-13T00:20:25.732Z,55.11
2023-02-13T00:21:25.692Z,54.21
2023-02-13T00:22:25.680Z,55.37
2023-02-13T00:23:25.694Z,55.07
2023-02-13T00:24:25.716Z,55.92
2023-02-13T00:25:25.612Z,55.81
2023-02-13T00:26:25.637Z,55.55
2023-02-13T00:27:25.663Z,55.70
2023-02-13T00:28:25.645Z,55.62
2023-02-13T00:29:25.590Z,55.78
2023-02-13T00:30:25.578Z,55.92
2023-02-13T00:31:25.714Z,56.00
2023-02-13T00:32:25.568Z,56.08
2023-02-13T00:33:25.559Z,55.92
2023-02-13T00:34:25.557Z,55.59
2023-02-13T00:35:25.541Z,56.38
2023-02-13T00:36:25.542Z,56.46
2023-02-13T00:37:25.492Z,56.42
2023-02-13T00:38:25.531Z,56.46
2023-02-13T00:39:25.499Z,56.53
2023-02-13T00:40:25.512Z,56.76
2023-02-13T00:41:25.455Z,56.80
2023-02-13T00:42:25.477Z,56.76
2023-02-13T00:43:25.487Z,56.96
2023-02-13T00:44:25.452Z,56.84
2023-02-13T00:45:25.439Z,57.19
2023-02-13T00:46:25.518Z,57.55
2023-02-13T00:47:25.470Z,57.51
2023-02-13T00:48:25.727Z,57.35
2023-02-13T00:49:25.406Z,57.71
2023-02-13T00:50:25.388Z,57.75
2023-02-13T00:51:25.367Z,57.99
2023-02-13T00:52:25.371Z,57.55
2023-02-13T00:53:25.366Z,58.20
2023-02-13T00:54:25.350Z,58.20
2023-02-13T00:55:25.343Z,58.20
2023-02-13T00:56:25.352Z,58.20
2023-02-13T00:57:25.363Z,58.40
2023-02-13T00:58:25.415Z,58.11
2023-02-13T00:59:25.312Z,58.15
2023-02-13T01:00:25.318Z,58.07
2023-02-13T01:01:25.318Z,57.87
2023-02-13T01:02:25.264Z,57.67
2023-02-13T01:03:25.293Z,57.99
2023-02-13T01:04:25.242Z,57.87
2023-02-13T01:05:25.269Z,57.75
2023-02-13T01:06:25.212Z,57.83
2023-02-13T01:07:25.272Z,57.39
2023-02-13T01:08:25.206Z,57.19
2023-02-13T01:09:25.229Z,57.19
2023-02-13T01:10:25.207Z,56.80
2023-02-13T01:11:25.191Z,56.76
2023-02-13T01:12:25.230Z,56.11
2023-02-13T01:13:25.212Z,56.49
2023-02-13T01:14:25.180Z,56.42
2023-02-13T01:15:25.161Z,56.34
2023-02-13T01:16:25.215Z,56.65
2023-02-13T01:17:25.223Z,56.57
2023-02-13T01:18:25.113Z,56.46
2023-02-13T01:19:25.144Z,56.38
2023-02-13T01:20:25.097Z,56.23
2023-02-13T01:21:25.092Z,55.89
2023-02-13T01:22:25.143Z,56.08
2023-02-13T01:23:25.105Z,55.85
2023-02-13T01:24:25.057Z,56.11
2023-02-13T01:25:25.073Z,55.70
2023-02-13T01:26:25.051Z,56.11
2023-02-13T01:27:25.050Z,56.00
2023-02-13T01:28:25.073Z,55.70
2023-02-13T01:29:25.026Z,55.26
2023-02-13T01:30:25.041Z,55.37
2023-02-13T01:31:25.061Z,55.33
2023-02-13T01:32:25.009Z,55.44
2023-02-13T01:33:24.973Z,54.75
2023-02-13T01:34:24.988Z,54.96
2023-02-13T01:35:24.969Z,55.26
2023-02-13T01:36:24.955Z,55.44
2023-02-13T01:37:24.941Z,55.55
2023-02-13T01:38:24.930Z,55.40
2023-02-13T01:39:24.972Z,55.66
2023-02-13T01:40:24.909Z,55.40
2023-02-13T01:41:24.920Z,54.82
2023-02-13T01:42:24.912Z,55.37
2023-02-13T01:43:24.875Z,54.57
2023-02-13T01:44:24.919Z,54.64
2023-02-13T01:45:24.863Z,54.93
2023-02-13T01:46:24.873Z,55.11
2023-02-13T01:47:24.837Z,55.37
2023-02-13T01:48:24.848Z,55.62
2023-02-13T01:49:24.822Z,56.08
2023-02-13T01:50:24.791Z,56.23
2023-02-13T01:51:24.772Z,55.92
2023-02-13T01:52:24.765Z,56.76
2023-02-13T01:53:24.806Z,56.15
2023-02-13T01:54:24.736Z,56.76
2023-02-13T01:55:24.727Z,56.88
2023-02-13T01:56:24.734Z,56.88
2023-02-13T01:57:24.742Z,56.61
2023-02-13T01:58:24.731Z,57.31
2023-02-13T01:59:24.752Z,56.69
2023-02-13T02:00:24.717Z,56.49
2023-02-13T02:01:24.761Z,57.08
2023-02-13T02:02:24.795Z,56.46
2023-02-13T02:03:24.688Z,56.26
2023-02-13T02:04:24.665Z,55.48
2023-02-13T02:05:24.719Z,55.66
2023-02-13T02:06:24.663Z,55.62
2023-02-13T02:07:24.665Z,55.18
2023-02-13T02:08:24.654Z,55.11
2023-02-13T02:09:24.635Z,55.07
2023-02-13T02:10:24.595Z,55.22
2023-02-13T02:11:24.601Z,55.40
2023-02-13T02:12:24.621Z,55.44
2023-02-13T02:13:24.588Z,55.51
2023-02-13T02:14:24.573Z,55.22
2023-02-13T02:15:24.597Z,55.44
2023-02-13T02:16:24.609Z,55.66
2023-02-13T02:17:24.541Z,55.66
2023-02-13T02:18:24.572Z,55.70
2023-02-13T02:19:24.539Z,55.48
2023-02-13T02:20:24.524Z,55.66
2023-02-13T02:21:24.535Z,55.48
2023-02-13T02:22:24.501Z,55.37
2023-02-13T02:23:24.488Z,55.48
2023-02-13T02:24:24.504Z,55.66
2023-02-13T02:25:24.486Z,55.29
2023-02-13T02:26:24.515Z,55.59
2023-02-13T02:27:24.473Z,55.33
2023-02-13T02:28:24.464Z,56.08
2023-02-13T02:29:24.436Z,56.23
2023-02-13T02:30:24.469Z,56.23
2023-02-13T02:31:24.459Z,56.69
2023-02-13T02:32:24.428Z,56.92
2023-02-13T02:33:24.415Z,57.59
2023-02-13T02:34:24.406Z,57.75
2023-02-13T02:35:24.455Z,58.11
2023-02-13T02:36:24.352Z,58.36
2023-02-13T02:37:24.361Z,58.69
2023-02-13T02:38:24.374Z,59.02
2023-02-13T02:39:24.416Z,59.28
2023-02-13T02:40:24.366Z,59.32
2023-02-13T02:41:24.292Z,59.32
2023-02-13T02:42:24.285Z,59.40
2023-02-13T02:43:24.290Z,59.06
2023-02-13T02:44:24.285Z,59.28
2023-02-13T02:45:24.286Z,58.94
2023-02-13T02:46:24.439Z,58.85
2023-02-13T02:47:24.266Z,58.94
2023-02-13T02:48:24.241Z,58.77
2023-02-13T02:49:24.248Z,58.69
2023-02-13T02:50:24.254Z,58.81
2023-02-13T02:51:24.218Z,58.77
2023-02-13T02:52:24.221Z,59.11
2023-02-13T02:53:24.227Z,59.02
2023-02-13T02:54:24.174Z,59.02
2023-02-13T02:55:24.183Z,58.94
2023-02-13T02:56:24.191Z,58.85
2023-02-13T02:57:24.192Z,58.98
2023-02-13T02:58:24.133Z,58.81
2023-02-13T02:59:24.185Z,58.56
2023-02-13T03:00:24.145Z,58.44
2023-02-13T03:01:24.162Z,58.61
2023-02-13T03:02:24.080Z,58.65
2023-02-13T03:03:24.089Z,58.40
2023-02-13T03:04:24.146Z,58.32
2023-02-13T03:05:24.080Z,58.61
2023-02-13T03:06:24.059Z,58.56
2023-02-13T03:07:24.057Z,58.56
2023-02-13T03:08:24.035Z,58.65
2023-02-13T03:09:24.057Z,58.65
2023-02-13T03:10:24.102Z,58.69
2023-02-13T03:11:24.026Z,58.32
2023-02-13T03:12:24.018Z,58.07
2023-02-13T03:13:24.044Z,58.61
2023-02-13T03:14:23.999Z,58.81
2023-02-13T03:15:24.002Z,58.69
2023-02-13T03:16:24.075Z,58.36
2023-02-13T03:17:23.993Z,58.48
2023-02-13T03:18:23.985Z,58.40
2023-02-13T03:19:23.939Z,58.77
2023-02-13T03:20:23.933Z,59.02
2023-02-13T03:21:23.942Z,59.06
2023-02-13T03:22:23.950Z,59.44
2023-02-13T03:23:23.911Z,59.57
2023-02-13T03:24:23.915Z,59.87
2023-02-13T03:25:23.900Z,59.70
2023-02-13T03:26:23.879Z,59.96
2023-02-13T03:27:23.892Z,60.00
2023-02-13T03:28:23.941Z,60.04
2023-02-13T03:29:23.859Z,59.92
2023-02-13T03:30:23.865Z,60.00
2023-02-13T03:31:23.850Z,60.18
2023-02-13T03:32:23.840Z,60.18
2023-02-13T03:33:23.837Z,60.18
2023-02-13T03:34:24.569Z,60.26
2023-02-13T03:35:23.814Z,60.04
2023-02-13T03:36:23.786Z,60.62
2023-02-13T03:37:23.808Z,60.62
2023-02-13T03:38:23.756Z,60.75
2023-02-13T03:39:23.773Z,60.93
2023-02-13T03:40:23.737Z,61.24
2023-02-13T03:41:23.753Z,61.10
2023-02-13T03:42:23.742Z,61.28
2023-02-13T03:43:23.719Z,61.33
2023-02-13T03:44:23.697Z,61.47
2023-02-13T03:45:23.695Z,61.56
2023-02-13T03:46:23.710Z,61.88
2023-02-13T03:47:23.675Z,61.83
2023-02-13T03:48:23.688Z,62.25
2023-02-13T03:49:23.665Z,62.16
2023-02-13T03:50:23.671Z,62.11
2023-02-13T03:51:23.651Z,62.02
2023-02-13T03:52:23.614Z,62.06
2023-02-13T03:53:23.614Z,62.25
2023-02-13T03:54:23.618Z,62.29
2023-02-13T03:55:23.618Z,62.06
2023-02-13T03:56:23.573Z,62.34
2023-02-13T03:57:23.588Z,62.39
2023-02-13T03:58:23.580Z,62.62
2023-02-13T03:59:23.567Z,62.81
2023-02-13T04:00:23.563Z,63.05
2023-02-13T04:01:23.593Z,63.10
2023-02-13T04:02:23.551Z,63.00
2023-02-13T04:03:23.582Z,63.15
2023-02-13T04:04:23.502Z,62.72
2023-02-13T04:05:23.473Z,63.10
2023-02-13T04:06:23.481Z,62.72
2023-02-13T04:07:23.474Z,62.58
2023-02-13T04:08:23.479Z,62.44
2023-02-13T04:09:23.468Z,62.20
2023-02-13T04:10:23.427Z,61.74
2023-02-13T04:11:23.437Z,61.92
2023-02-13T04:12:23.437Z,61.83
2023-02-13T04:13:23.402Z,61.74
2023-02-13T04:14:23.394Z,61.69
2023-02-13T04:15:23.411Z,61.79
2023-02-13T04:16:23.380Z,61.88
2023-02-13T04:17:23.405Z,61.92
2023-02-13T04:18:23.415Z,61.88
2023-02-13T04:19:23.339Z,62.29
2023-02-13T04:20:23.333Z,62.39
2023-02-13T04:21:23.362Z,62.39
2023-02-13T04:22:23.338Z,62.77
2023-02-13T04:23:23.347Z,63.00
2023-02-13T04:24:23.297Z,63.15
2023-02-13T04:25:23.352Z,63.63
2023-02-13T04:26:23.327Z,63.49
2023-02-13T04:27:23.310Z,63.63
2023-02-13T04:28:23.308Z,63.88
2023-02-13T04:29:23.295Z,63.83
2023-02-13T04:30:23.335Z,64.17
2023-02-13T04:31:23.398Z,64.57
2023-02-13T04:32:23.230Z,65.02
2023-02-13T04:33:23.227Z,65.28
2023-02-13T04:34:23.212Z,65.80
2023-02-13T04:35:23.205Z,65.90
2023-02-13T04:36:23.244Z,66.11
2023-02-13T04:37:23.196Z,66.53
2023-02-13T04:38:23.206Z,67.02
2023-02-13T04:39:23.151Z,67.45
2023-02-13T04:40:23.159Z,68.51
2023-02-13T04:41:23.128Z,68.85
2023-02-13T04:42:23.140Z,69.36
2023-02-13T04:43:23.137Z,69.89
2023-02-13T04:44:23.119Z,70.30
2023-02-13T04:45:23.094Z,70.48
2023-02-13T04:46:23.197Z,70.84
2023-02-13T04:47:23.098Z,71.21
2023-02-13T04:48:23.086Z,71.21
2023-02-13T04:49:23.074Z,71.27
2023-02-13T04:50:23.058Z,71.51
2023-02-13T04:51:23.038Z,71.64
2023-02-13T04:52:23.035Z,71.64
2023-02-13T04:53:23.037Z,72.64
2023-02-13T04:54:23.017Z,72.57
2023-02-13T04:55:23.001Z,72.77
2023-02-13T04:56:23.028Z,73.21
2023-02-13T04:57:23.008Z,73.08
2023-02-13T04:58:22.976Z,73.54
2023-02-13T04:59:22.984Z,73.80
2023-02-13T05:00:22.986Z,74.13
2023-02-13T05:01:23.023Z,74.39
2023-02-13T05:02:22.962Z,74.73
2023-02-13T05:03:22.931Z,74.86
2023-02-13T05:04:23.096Z,74.53
2023-02-13T05:05:22.912Z,74.39
2023-02-13T05:06:22.933Z,73.93
2023-02-13T05:07:22.926Z,74.06
2023-02-13T05:08:22.895Z,74.33
2023-02-13T05:09:22.893Z,74.46
2023-02-13T05:10:22.912Z,74.53
2023-02-13T05:11:22.867Z,74.53
2023-02-13T05:12:22.857Z,74.19
2023-02-13T05:13:22.847Z,73.41
2023-02-13T05:14:22.840Z,73.41
2023-02-13T05:15:22.849Z,73.21
2023-02-13T05:16:22.834Z,73.21
2023-02-13T05:17:22.802Z,73.28
2023-02-13T05:18:22.845Z,73.21
2023-02-13T05:19:22.780Z,73.15
2023-02-13T05:20:22.817Z,73.02
2023-02-13T05:21:22.757Z,72.77
2023-02-13T05:22:22.775Z,72.32
2023-02-13T05:23:22.755Z,72.07
2023-02-13T05:24:22.755Z,72.07
2023-02-13T05:25:22.720Z,71.57
2023-02-13T05:26:22.701Z,71.57
2023-02-13T05:27:22.700Z,71.82
2023-02-13T05:28:22.776Z,71.89
2023-02-13T05:29:22.726Z,71.64
2023-02-13T05:30:22.678Z,71.89
2023-02-13T05:31:22.735Z,71.95
2023-02-13T05:32:22.653Z,72.07
2023-02-13T05:33:22.637Z,72.89
2023-02-13T05:34:22.645Z,73.80
2023-02-13T05:35:22.623Z,74.19
2023-02-13T05:36:22.629Z,75.00
2023-02-13T05:37:22.605Z,75.13
2023-02-13T05:38:22.611Z,75.82
2023-02-13T05:39:22.616Z,75.96
2023-02-13T05:40:23.048Z,76.38
2023-02-13T05:41:22.599Z,76.66
2023-02-13T05:42:22.600Z,76.80
2023-02-13T05:43:22.541Z,76.66
2023-02-13T05:44:22.588Z,76.80
2023-02-13T05:45:22.526Z,76.80
2023-02-13T05:46:22.576Z,76.24
2023-02-13T05:47:22.535Z,75.96
2023-02-13T05:48:22.509Z,75.82
2023-02-13T05:49:22.489Z,76.03
2023-02-13T05:50:22.483Z,76.10
2023-02-13T05:51:22.493Z,76.66
2023-02-13T05:52:22.492Z,77.16
2023-02-13T05:53:22.466Z,77.51
2023-02-13T05:54:22.457Z,78.17
2023-02-13T05:55:22.456Z,78.32
2023-02-13T05:56:22.465Z,78.17
2023-02-13T05:57:22.415Z,78.03
2023-02-13T05:58:22.366Z,77.95
2023-02-13T05:59:24.014Z,77.81
2023-02-13T06:00:22.412Z,78.03
2023-02-13T06:01:22.403Z,77.51
2023-02-13T06:02:22.427Z,77.66
2023-02-13T06:03:22.636Z,77.66
2023-02-13T06:04:22.370Z,77.88
2023-02-13T06:05:22.343Z,77.73
2023-02-13T06:06:22.360Z,77.95
2023-02-13T06:07:22.293Z,78.03
2023-02-13T06:08:22.290Z,77.95
2023-02-13T06:09:22.265Z,77.66
2023-02-13T06:10:22.236Z,77.73
2023-02-13T06:11:22.254Z,77.81
2023-02-13T06:12:22.251Z,77.51
2023-02-13T06:13:22.252Z,77.08
2023-02-13T06:14:22.248Z,77.16
2023-02-13T06:15:22.194Z,77.37
2023-02-13T06:16:22.251Z,77.44
2023-02-13T06:17:22.172Z,77.37
2023-02-13T06:18:22.182Z,77.59
2023-02-13T06:19:22.155Z,77.59
2023-02-13T06:20:22.166Z,77.51
2023-02-13T06:21:22.682Z,77.51
2023-02-13T06:22:22.131Z,77.30
2023-02-13T06:23:22.106Z,77.23
2023-02-13T06:24:22.100Z,77.08
2023-02-13T06:25:22.133Z,76.73
2023-02-13T06:26:22.125Z,76.94
2023-02-13T06:27:22.097Z,77.30
2023-02-13T06:28:22.128Z,76.80
2023-02-13T06:29:22.071Z,76.24
2023-02-13T06:30:22.078Z,76.03
2023-02-13T06:31:22.117Z,76.10
2023-02-13T06:32:22.055Z,75.82
2023-02-13T06:33:22.026Z,75.68
2023-02-13T06:34:22.034Z,75.13
2023-02-13T06:35:22.018Z,74.93
2023-02-13T06:36:22.051Z,74.13
2023-02-13T06:37:22.026Z,73.67
2023-02-13T06:38:22.047Z,73.21
2023-02-13T06:39:22.008Z,72.57
2023-02-13T06:40:22.062Z,72.51
2023-02-13T06:41:21.976Z,72.39
2023-02-13T06:42:21.960Z,72.13
2023-02-13T06:43:21.951Z,72.45
2023-02-13T06:44:21.984Z,72.83
2023-02-13T06:45:21.905Z,73.02
2023-02-13T06:46:21.997Z,73.67
2023-02-13T06:47:21.903Z,74.59
2023-02-13T06:48:21.928Z,75.13
2023-02-13T06:49:21.897Z,75.75
2023-02-13T06:50:21.902Z,76.10
2023-02-13T06:51:21.877Z,76.03
2023-02-13T06:52:21.884Z,76.66
2023-02-13T06:53:21.891Z,77.44
2023-02-13T06:54:28.358Z,77.59
2023-02-13T06:55:21.845Z,78.10
2023-02-13T06:56:21.837Z,77.59
2023-02-13T06:57:21.879Z,77.44
2023-02-13T06:58:21.839Z,78.10
2023-02-13T06:59:21.834Z,78.47
2023-02-13T07:00:21.780Z,78.17
2023-02-13T07:01:21.861Z,78.61
2023-02-13T07:02:21.802Z,78.39
2023-02-13T07:03:21.782Z,78.54
2023-02-13T07:04:21.759Z,78.54
2023-02-13T07:05:21.770Z,78.47
2023-02-13T07:06:21.717Z,78.61
2023-02-13T07:07:21.706Z,78.61
2023-02-13T07:08:21.711Z,78.47
2023-02-13T07:09:21.696Z,78.32
2023-02-13T07:10:21.730Z,78.25
2023-02-13T07:11:21.712Z,78.10
2023-02-13T07:12:21.673Z,78.17
2023-02-13T07:13:21.656Z,77.95
2023-02-13T07:14:21.689Z,78.03
2023-02-13T07:15:21.628Z,78.17
2023-02-13T07:16:21.749Z,77.95
2023-02-13T07:17:21.661Z,77.73
2023-02-13T07:18:21.606Z,77.44
2023-02-13T07:19:21.610Z,77.08
2023-02-13T07:20:21.626Z,76.59
2023-02-13T07:21:21.603Z,76.52
2023-02-13T07:22:21.559Z,76.24
2023-02-13T07:23:21.637Z,75.41
2023-02-13T07:24:21.552Z,75.34
2023-02-13T07:25:21.558Z,75.27
2023-02-13T07:26:21.534Z,75.47
2023-02-13T07:27:21.562Z,75.34
2023-02-13T07:28:21.517Z,75.07
2023-02-13T07:29:21.527Z,74.73
2023-02-13T07:30:21.514Z,74.66
2023-02-13T07:31:21.477Z,74.53
2023-02-13T07:32:21.462Z,74.46
2023-02-13T07:33:21.454Z,74.39
2023-02-13T07:34:21.434Z,74.26
2023-02-13T07:35:21.435Z,74.19
2023-02-13T07:36:21.428Z,73.73
2023-02-13T07:37:21.440Z,72.96
2023-02-13T07:38:21.420Z,72.13
2023-02-13T07:39:21.389Z,71.51
2023-02-13T07:40:21.385Z,71.21
2023-02-13T07:41:21.397Z,70.78
2023-02-13T07:42:21.402Z,70.42
2023-02-13T07:43:21.371Z,70.48
2023-02-13T07:44:21.365Z,70.54
2023-02-13T07:45:21.360Z,70.36
2023-02-13T07:46:21.485Z,70.42
2023-02-13T07:47:21.347Z,70.60
2023-02-13T07:48:21.388Z,70.54
2023-02-13T07:49:21.320Z,70.60
2023-02-13T07:50:21.313Z,70.78
2023-02-13T07:51:21.325Z,70.90
2023-02-13T07:52:21.323Z,70.90
2023-02-13T07:53:21.296Z,71.03
2023-02-13T07:54:21.302Z,70.96
2023-02-13T07:55:21.299Z,71.08
2023-02-13T07:56:21.237Z,70.78
2023-02-13T07:57:21.245Z,70.60
2023-02-13T07:58:21.248Z,70.42
2023-02-13T07:59:21.225Z,70.60
2023-02-13T08:00:21.216Z,70.66
2023-02-13T08:01:21.746Z,70.54
2023-02-13T08:02:21.213Z,70.54
2023-02-13T08:03:21.155Z,70.54
2023-02-13T08:04:21.154Z,70.54
2023-02-13T08:05:21.140Z,70.90
2023-02-13T08:06:21.123Z,70.66
2023-02-13T08:07:21.155Z,70.78
2023-02-13T08:08:21.132Z,70.72
2023-02-13T08:09:21.130Z,70.48
2023-02-13T08:10:21.133Z,70.24
2023-02-13T08:11:21.137Z,69.95
2023-02-13T08:12:21.165Z,69.60
2023-02-13T08:13:21.109Z,69.02
2023-02-13T08:14:21.116Z,68.79
2023-02-13T08:15:21.056Z,68.85
2023-02-13T08:16:21.171Z,68.56
2023-02-13T08:17:21.121Z,68.39
2023-02-13T08:18:21.045Z,68.34
2023-02-13T08:19:21.023Z,68.39
2023-02-13T08:20:21.007Z,68.45
2023-02-13T08:21:21.012Z,68.51
2023-02-13T08:22:21.017Z,68.62
2023-02-13T08:23:21.060Z,68.28
2023-02-13T08:24:21.022Z,68.56
2023-02-13T08:25:21.095Z,68.17
2023-02-13T08:26:20.946Z,68.45
2023-02-13T08:27:21.021Z,68.11
2023-02-13T08:28:21.024Z,68.45
2023-02-13T08:29:20.922Z,67.89
2023-02-13T08:30:20.985Z,67.89
2023-02-13T08:31:21.031Z,67.89
2023-02-13T08:32:21.227Z,67.34
2023-02-13T08:33:20.885Z,66.96
2023-02-13T08:34:20.926Z,66.64
2023-02-13T08:35:20.890Z,66.69
2023-02-13T08:36:20.873Z,66.00
2023-02-13T08:37:20.859Z,65.38
2023-02-13T08:38:20.821Z,65.33
2023-02-13T08:39:20.836Z,65.07
2023-02-13T08:40:20.956Z,64.97
2023-02-13T08:41:20.827Z,65.02
2023-02-13T08:42:20.795Z,64.67
2023-02-13T08:43:20.760Z,64.32
2023-02-13T08:44:20.746Z,63.97
2023-02-13T08:45:20.772Z,63.78
2023-02-13T08:46:20.834Z,63.49
2023-02-13T08:47:20.745Z,63.39
2023-02-13T08:48:20.708Z,63.24
2023-02-13T08:49:21.626Z,63.05
2023-02-13T08:50:20.692Z,63.15
2023-02-13T08:51:20.729Z,63.05
2023-02-13T08:52:20.673Z,63.00
2023-02-13T08:53:20.686Z,62.91
2023-02-13T08:54:20.678Z,62.77
2023-02-13T08:55:20.801Z,62.58
2023-02-13T08:56:20.632Z,62.53
2023-02-13T08:57:20.637Z,62.48
2023-02-13T08:58:20.678Z,62.29
2023-02-13T08:59:20.653Z,62.16
2023-02-13T09:00:20.693Z,61.92
2023-02-13T09:01:20.675Z,61.88
2023-02-13T09:02:20.613Z,60.97
2023-02-13T09:03:20.580Z,61.10
2023-02-13T09:04:20.554Z,61.19
2023-02-13T09:05:21.524Z,61.06
2023-02-13T09:06:20.546Z,61.38
2023-02-13T09:07:20.541Z,61.33
2023-02-13T09:08:20.525Z,61.74
2023-02-13T09:09:21.530Z,60.97
2023-02-13T09:10:20.569Z,61.15
2023-02-13T09:11:20.495Z,61.15
2023-02-13T09:12:20.499Z,60.88
2023-02-13T09:13:20.529Z,60.57
2023-02-13T09:14:20.462Z,60.79
2023-02-13T09:15:20.528Z,60.04
2023-02-13T09:16:20.493Z,60.48
2023-02-13T09:17:20.443Z,59.87
2023-02-13T09:18:20.452Z,59.70
2023-02-13T09:19:20.430Z,60.26
2023-02-13T09:20:20.415Z,59.40
2023-02-13T09:21:21.154Z,59.87
2023-02-13T09:22:20.396Z,59.83
2023-02-13T09:23:20.381Z,59.36
2023-02-13T09:24:20.378Z,60.09
2023-02-13T09:25:20.363Z,59.79
2023-02-13T09:26:21.137Z,59.87
2023-02-13T09:27:20.355Z,60.22
2023-02-13T09:28:20.417Z,60.26
2023-02-13T09:29:20.314Z,60.70
2023-02-13T09:30:20.316Z,59.96
2023-02-13T09:31:20.416Z,60.62
2023-02-13T09:32:20.332Z,60.39
2023-02-13T09:33:20.318Z,60.04
2023-02-13T09:34:20.275Z,60.35
2023-02-13T09:35:20.312Z,59.70
2023-02-13T09:36:20.291Z,60.26
2023-02-13T09:37:20.243Z,59.74
2023-02-13T09:38:20.246Z,60.39
2023-02-13T09:39:20.244Z,59.44
2023-02-13T09:40:20.213Z,59.49
2023-02-13T09:41:20.233Z,58.94
2023-02-13T09:42:20.196Z,58.40
2023-02-13T09:43:20.184Z,58.73
2023-02-13T09:44:20.184Z,57.63
2023-02-13T09:45:20.173Z,57.63
2023-02-13T09:46:20.208Z,58.11
2023-02-13T09:47:20.178Z,57.00
2023-02-13T09:48:20.194Z,56.65
2023-02-13T09:49:20.138Z,56.53
2023-02-13T09:50:20.127Z,56.69
2023-02-13T09:51:20.107Z,55.62
2023-02-13T09:52:20.099Z,55.74
2023-02-13T09:53:20.097Z,55.15
2023-02-13T09:54:20.104Z,54.75
2023-02-13T09:55:20.070Z,54.25
2023-02-13T09:56:20.069Z,54.32
2023-02-13T09:57:20.065Z,53.55
2023-02-13T09:58:20.062Z,54.03
2023-02-13T09:59:20.053Z,53.96
2023-02-13T10:00:20.617Z,53.41
2023-02-13T10:01:20.052Z,53.44
2023-02-13T10:02:20.002Z,52.56
2023-02-13T10:03:20.105Z,53.07
2023-02-13T10:04:20.073Z,52.87
2023-02-13T10:05:20.056Z,51.75
2023-02-13T10:06:20.013Z,52.27
2023-02-13T10:07:19.973Z,51.49
2023-02-13T10:08:19.986Z,51.40
2023-02-13T10:09:20.026Z,50.92
2023-02-13T10:10:19.937Z,50.86
2023-02-13T10:11:19.966Z,50.49
2023-02-13T10:12:19.958Z,50.40
2023-02-13T10:13:21.052Z,50.19
2023-02-13T10:14:19.902Z,50.06
2023-02-13T10:15:19.909Z,50.28
2023-02-13T10:16:19.967Z,49.91
2023-02-13T10:17:19.878Z,49.50
2023-02-13T10:18:19.884Z,49.00
2023-02-13T10:19:19.840Z,48.60
2023-02-13T10:20:20.033Z,48.49
2023-02-13T10:21:19.810Z,47.98
2023-02-13T10:22:19.805Z,47.93
2023-02-13T10:23:19.821Z,48.18
2023-02-13T10:24:19.808Z,47.76
2023-02-13T10:25:19.783Z,47.71
2023-02-13T10:26:20.307Z,47.14
2023-02-13T10:27:19.795Z,47.11
2023-02-13T10:28:19.815Z,46.80
2023-02-13T10:29:19.769Z,46.75
2023-02-13T10:30:19.809Z,46.59
2023-02-13T10:31:19.916Z,46.02
2023-02-13T10:32:19.903Z,45.82
2023-02-13T10:33:20.122Z,45.77
2023-02-13T10:34:19.715Z,45.67
2023-02-13T10:35:19.732Z,45.57
2023-02-13T10:36:19.758Z,45.27
2023-02-13T10:37:26.235Z,45.37
2023-02-13T10:38:19.674Z,45.22
2023-02-13T10:39:19.647Z,45.27
2023-02-13T10:40:19.646Z,45.22
2023-02-13T10:41:19.634Z,45.27
2023-02-13T10:42:19.624Z,45.32
2023-02-13T10:43:19.602Z,45.77
2023-02-13T10:44:19.613Z,45.92
2023-02-13T10:45:19.682Z,45.92
2023-02-13T10:46:19.607Z,45.77
2023-02-13T10:47:19.576Z,46.12
2023-02-13T10:48:19.564Z,46.02
2023-02-13T10:49:19.539Z,45.92
2023-02-13T10:50:19.590Z,45.67
2023-02-13T10:51:19.552Z,45.62
2023-02-13T10:52:19.533Z,45.37
2023-02-13T10:53:19.576Z,45.22
2023-02-13T10:54:19.507Z,44.93
2023-02-13T10:55:19.501Z,44.93
2023-02-13T10:56:19.485Z,44.59
2023-02-13T10:57:19.463Z,44.40
2023-02-13T10:58:19.462Z,44.03
2023-02-13T10:59:19.458Z,43.70
2023-02-13T11:00:19.440Z,43.93
2023-02-13T11:01:19.577Z,43.65
2023-02-13T11:02:19.420Z,43.93
2023-02-13T11:03:19.418Z,43.79
2023-02-13T11:04:19.535Z,43.98
2023-02-13T11:05:19.379Z,44.12
2023-02-13T11:06:19.390Z,43.84
2023-02-13T11:07:19.379Z,43.89
2023-02-13T11:08:19.396Z,43.65
2023-02-13T11:09:19.364Z,43.38
2023-02-13T11:10:19.321Z,43.70
2023-02-13T11:11:19.333Z,43.70
2023-02-13T11:12:19.358Z,43.65
2023-02-13T11:13:19.319Z,43.89
2023-02-13T11:14:19.313Z,44.12
2023-02-13T11:15:19.295Z,44.12
2023-02-13T11:16:19.298Z,43.84
2023-02-13T11:17:19.322Z,43.65
2023-02-13T11:18:19.299Z,43.43
2023-02-13T11:19:19.257Z,43.43
2023-02-13T11:20:19.239Z,43.29
2023-02-13T11:21:19.246Z,43.75
2023-02-13T11:22:19.233Z,43.61
2023-02-13T11:23:19.205Z,43.84
2023-02-13T11:24:19.188Z,44.26
2023-02-13T11:25:19.200Z,44.45
2023-02-13T11:26:19.175Z,44.40
2023-02-13T11:27:21.843Z,44.54
2023-02-13T11:28:19.259Z,44.69
2023-02-13T11:29:19.141Z,44.98
2023-02-13T11:30:19.154Z,44.98
2023-02-13T11:31:19.313Z,45.52
2023-02-13T11:32:19.238Z,45.62
2023-02-13T11:33:19.164Z,45.77
2023-02-13T11:34:19.120Z,45.92
2023-02-13T11:35:19.077Z,46.28
2023-02-13T11:36:19.074Z,46.23
2023-02-13T11:37:19.098Z,46.28
2023-02-13T11:38:19.098Z,46.23
2023-02-13T11:39:19.085Z,46.23
2023-02-13T11:40:19.071Z,46.69
2023-02-13T11:41:19.032Z,46.64
2023-02-13T11:42:19.033Z,46.64
2023-02-13T11:43:19.011Z,46.43
2023-02-13T11:44:19.021Z,46.49
2023-02-13T11:45:19.034Z,46.43
2023-02-13T11:46:19.054Z,46.49
2023-02-13T11:47:18.969Z,46.69
2023-02-13T11:48:18.950Z,46.69
2023-02-13T11:49:18.953Z,46.64
2023-02-13T11:50:18.957Z,46.64
2023-02-13T11:51:18.976Z,46.23
2023-02-13T11:52:18.947Z,46.02
2023-02-13T11:53:18.956Z,46.07
2023-02-13T11:54:18.892Z,46.12
2023-02-13T11:55:18.896Z,46.17
2023-02-13T11:56:18.886Z,46.07
2023-02-13T11:57:18.891Z,45.37
2023-02-13T11:58:18.941Z,45.37
2023-02-13T11:59:18.884Z,45.42
2023-02-13T12:00:18.856Z,45.57
2023-02-13T12:01:18.844Z,45.62
2023-02-13T12:02:18.888Z,45.82
2023-02-13T12:03:18.955Z,45.67
2023-02-13T12:04:18.836Z,45.62
2023-02-13T12:05:18.802Z,45.52
2023-02-13T12:06:18.808Z,45.92
2023-02-13T12:07:18.792Z,45.82
2023-02-13T12:08:18.763Z,45.67
2023-02-13T12:09:19.575Z,45.37
2023-02-13T12:10:18.773Z,45.32
2023-02-13T12:11:18.739Z,44.83
2023-02-13T12:12:18.721Z,45.07
2023-02-13T12:13:18.739Z,45.47
2023-02-13T12:14:18.718Z,45.72
2023-02-13T12:15:18.706Z,46.02
2023-02-13T12:16:18.797Z,45.97
2023-02-13T12:17:30.879Z,46.12
2023-02-13T12:18:18.678Z,46.43
2023-02-13T12:19:18.675Z,46.90
2023-02-13T12:20:18.686Z,47.17
2023-02-13T12:21:18.669Z,47.65
2023-02-13T12:22:18.730Z,47.76
2023-02-13T12:23:18.632Z,48.23
2023-02-13T12:24:18.618Z,48.46
2023-02-13T12:25:18.611Z,48.66
2023-02-13T12:26:18.612Z,48.74
2023-02-13T12:27:18.573Z,48.60
2023-02-13T12:28:18.639Z,48.12
2023-02-13T12:29:18.617Z,48.15
2023-02-13T12:30:18.602Z,48.15
2023-02-13T12:31:18.558Z,48.60
2023-02-13T12:32:18.544Z,48.49
2023-02-13T12:33:18.553Z,48.40
2023-02-13T12:34:18.524Z,48.26
2023-02-13T12:35:18.536Z,48.29
2023-02-13T12:36:18.488Z,48.35
2023-02-13T12:37:18.479Z,48.54
2023-02-13T12:38:18.495Z,48.83
2023-02-13T12:39:18.490Z,48.69
2023-02-13T12:40:18.472Z,48.54
2023-02-13T12:41:18.461Z,47.87
2023-02-13T12:42:18.438Z,47.79
2023-02-13T12:43:18.421Z,47.54
2023-02-13T12:44:18.432Z,47.41
2023-02-13T12:45:18.410Z,47.11
2023-02-13T12:46:18.432Z,47.01
2023-02-13T12:47:18.373Z,47.01
2023-02-13T12:48:18.672Z,47.22
2023-02-13T12:49:18.394Z,47.41
2023-02-13T12:50:18.371Z,47.30
2023-02-13T12:51:18.358Z,46.85
2023-02-13T12:52:18.366Z,46.54